WetterOnline ( https://www.wetteronline.de )

Wetter aktuell Heiligenhafen

Aktuelles Wetter: Westermarkelsdorf (9m)

6-stündlich | Neueste Meldungen
Ortszeit Temperatur Wetter
Fr, 02.12. 13:00 4.5° C bedeckt
Fr, 02.12. 7:00 1.8° C leichter Regen
Fr, 02.12. 1:00 2.3° C Sprühregen
Do, 01.12. 19:00 3.3° C leichter Regen
Do, 01.12. 13:00 3.6° C bedeckt
Do, 01.12. 7:00 4.1° C leichter Regen
Do, 01.12. 1:00 4.0° C leichter Regen
Mi, 30.11. 19:00 4.0° C leichter Regen
Ortszeit Temperatur Wetter
Fr, 02.12. 14:00 4.4° C bewölkt
Fr, 02.12. 13:40 4.3° C bedeckt
Fr, 02.12. 13:30 4.6° C bewölkt
Fr, 02.12. 13:20 4.6° C bewölkt
Fr, 02.12. 13:10 4.5° C bewölkt
Fr, 02.12. 13:00 4.5° C bedeckt
Fr, 02.12. 12:50 4.5° C bedeckt
Fr, 02.12. 12:30 4.1° C bedeckt
Fr, 02.12. 12:00 4.1° C bedeckt
Fr, 02.12. 11:30 3.9° C bedeckt
Fr, 02.12. 11:00 3.8° C bedeckt
Ortszeit Relative Feuchte Sichtweite
Fr, 02.12. 13:00 75% 30 km
Fr, 02.12. 7:00 96% 5.0 km
Fr, 02.12. 1:00 90% 7 km
Do, 01.12. 19:00 92% 6 km
Do, 01.12. 13:00 86% 10 km
Do, 01.12. 7:00 91% 6 km
Do, 01.12. 1:00 91% 10 km
Mi, 30.11. 19:00 97% 3.4 km
Ortszeit Relative Feuchte Sichtweite
Fr, 02.12. 14:00 77% 30 km
Fr, 02.12. 13:40 78% -
Fr, 02.12. 13:30 76% 35 km
Fr, 02.12. 13:20 76% -
Fr, 02.12. 13:10 75% -
Fr, 02.12. 13:00 75% 30 km
Fr, 02.12. 12:50 75% -
Fr, 02.12. 12:30 80% 21 km
Fr, 02.12. 12:00 83% 20 km
Fr, 02.12. 11:30 85% 18 km
Fr, 02.12. 11:00 85% 16 km
Ortszeit Niederschlagsmenge Niederschlagsart
Fr, 02.12. 13:00 0.1 l/m2 in 6 Std. Regen
Fr, 02.12. 7:00 2 l/m2 in 12 Std. Regen
Fr, 02.12. 1:00 1 l/m2 in 6 Std. Regen
Do, 01.12. 19:00 0.2 l/m2 in 12 Std. Regen
Do, 01.12. 13:00 0.1 l/m2 in 6 Std. Regen
Do, 01.12. 7:00 1 l/m2 in 12 Std. Regen
Do, 01.12. 1:00 1 l/m2 in 6 Std. Regen
Mi, 30.11. 19:00 0.9 l/m2 in 12 Std. Regen
Ortszeit Niederschlagsmenge Niederschlagsart
Fr, 02.12. 14:00 0.0 l/m2 in 1 Std. -
Fr, 02.12. 13:40 keine Meldung -
Fr, 02.12. 13:30 0.0 l/m2 in 30 Min -
Fr, 02.12. 13:20 keine Meldung -
Fr, 02.12. 13:10 keine Meldung -
Fr, 02.12. 13:00 0.0 l/m2 in 1 Std. Regen
Fr, 02.12. 12:50 keine Meldung -
Fr, 02.12. 12:30 0.0 l/m2 in 30 Min -
Fr, 02.12. 12:00 0.0 l/m2 in 1 Std. -
Fr, 02.12. 11:30 0.0 l/m2 in 30 Min -
Fr, 02.12. 11:00 0.0 l/m2 in 1 Std. -
Ortszeit Stärke Spitze Richtung
km/h Bft. km/h Grad Sektor
Fr, 02.12. 13:00 19 3 28 90° O
Fr, 02.12. 7:00 4 1 11 150° SO
Fr, 02.12. 1:00 7 2 22 150° SO
Do, 01.12. 19:00 7 2 19 130° SO
Do, 01.12. 13:00 11 2 22 110° O
Do, 01.12. 7:00 7 2 25 110° O
Do, 01.12. 1:00 14 3 25 100° O
Mi, 30.11. 19:00 7 2 22 130° SO
Ortszeit Stärke Spitze Richtung
km/h Bft. km/h Grad Sektor
Fr, 02.12. 14:00 13 3 24 90° O
Fr, 02.12. 13:40 13 3 - 100° O
Fr, 02.12. 13:30 17 3 24 100° O
Fr, 02.12. 13:20 17 3 - 100° O
Fr, 02.12. 13:10 17 3 - 100° O
Fr, 02.12. 13:00 19 3 28 90° O
Fr, 02.12. 12:50 19 3 - 90° O
Fr, 02.12. 12:30 15 3 22 90° O
Fr, 02.12. 12:00 15 3 28 100° O
Fr, 02.12. 11:30 22 4 29 80° O
Fr, 02.12. 11:00 20 4 26 80° O
Ortszeit Untergrenze Bedeckung Gattung
total tief tief mittel hoch
Fr, 02.12. 13:00 630 m 8/8 8/8 - - -
Fr, 02.12. 7:00 120 m 7/8 7/8 - - -
Fr, 02.12. 1:00 390 m 8/8 8/8 - - -
Do, 01.12. 19:00 360 m 8/8 8/8 - - -
Do, 01.12. 13:00 390 m 8/8 8/8 - - -
Do, 01.12. 7:00 360 m 8/8 8/8 - - -
Do, 01.12. 1:00 810 m 8/8 8/8 - - -
Mi, 30.11. 19:00 270 m 8/8 8/8 - - -
Ortszeit Bedeckungsgrad in Achtel und Wolkenuntergrenze
Fr, 02.12. 14:00 3(600m) 7(1440m) 8(3000m)
Fr, 02.12. 13:40 8
Fr, 02.12. 13:30 2(720m) 7(1440m)
Fr, 02.12. 13:20 2(720m) 2(930m) 7(1440m)
Fr, 02.12. 13:10 7
Fr, 02.12. 13:00 3(630m) 7(1230m) 8(1440m)
Fr, 02.12. 12:50 3(630m) 7(1230m) 8(1440m)
Fr, 02.12. 12:30 5(510m) 6(1140m) 8(1350m)
Fr, 02.12. 12:00 3(450m) 7(840m) 8(1290m)
Fr, 02.12. 11:30 2(420m) 7(900m) 8(1380m)
Fr, 02.12. 11:00 5(480m) 7(660m) 8(1290m)
Ortszeit Luftdruck NN (hPa) Tendenz (hPa in 3 Std.)
Fr, 02.12. 13:00 1029 - 0,2
Fr, 02.12. 7:00 1029 - 0,2
Fr, 02.12. 1:00 1030 - 0,5
Do, 01.12. 19:00 1030 + 0,1
Do, 01.12. 13:00 1030 - 0,1
Do, 01.12. 7:00 1030 + 0,3
Do, 01.12. 1:00 1029 + 0,3
Mi, 30.11. 19:00 1028 + 1,0
Ortszeit Luftdruck NN (hPa) Tendenz (hPa in 3 Std.)
Fr, 02.12. 14:00 1029 - 0,6
Fr, 02.12. 13:40 1029 keine Meldung
Fr, 02.12. 13:30 1029 - 0,6
Fr, 02.12. 13:20 1029 keine Meldung
Fr, 02.12. 13:10 1029 keine Meldung
Fr, 02.12. 13:00 1029 - 0,2
Fr, 02.12. 12:50 1029 keine Meldung
Fr, 02.12. 12:30 1030 + 0,1
Fr, 02.12. 12:00 1030 + 0,1
Fr, 02.12. 11:30 1030 + 0,4
Fr, 02.12. 11:00 1030 + 0,5
Ortszeit Schneehöhe (cm)
Fr, 02.12. 13:00 0
Fr, 02.12. 7:00 0
Fr, 02.12. 1:00 0
Do, 01.12. 19:00 0
Do, 01.12. 13:00 0
Do, 01.12. 7:00 0
Do, 01.12. 1:00 0
Mi, 30.11. 19:00 0
Ortszeit Schneehöhe (cm)
Fr, 02.12. 14:00 0
Fr, 02.12. 13:40 0
Fr, 02.12. 13:30 0
Fr, 02.12. 13:20 0
Fr, 02.12. 13:10 0
Fr, 02.12. 13:00 0
Fr, 02.12. 12:50 0
Fr, 02.12. 12:30 0
Fr, 02.12. 12:00 0
Fr, 02.12. 11:30 0
Fr, 02.12. 11:00 0
Link zu dieser Seite / Seite empfehlen

Das Wetter in ...